sensor_id;sensor_type;location;lat;lon;timestamp;P1;durP1;ratioP1;P2;durP2;ratioP2
3613;SDS011;1821;50.936;6.854;2023-08-30T00:00:30;14.02;;;12.63;;
3613;SDS011;1821;50.936;6.854;2023-08-30T00:01:12;14.00;;;12.52;;
3613;SDS011;1821;50.936;6.854;2023-08-30T00:01:54;14.45;;;12.63;;
3613;SDS011;1821;50.936;6.854;2023-08-30T00:02:36;14.60;;;13.10;;
3613;SDS011;1821;50.936;6.854;2023-08-30T00:03:18;15.60;;;13.90;;
3613;SDS011;1821;50.936;6.854;2023-08-30T00:04:00;15.00;;;13.50;;
3613;SDS011;1821;50.936;6.854;2023-08-30T00:04:42;14.55;;;13.05;;
3613;SDS011;1821;50.936;6.854;2023-08-30T00:05:24;14.63;;;13.20;;
3613;SDS011;1821;50.936;6.854;2023-08-30T00:06:06;14.27;;;12.88;;
3613;SDS011;1821;50.936;6.854;2023-08-30T00:06:48;15.50;;;13.55;;
3613;SDS011;1821;50.936;6.854;2023-08-30T00:07:30;15.00;;;13.43;;
3613;SDS011;1821;50.936;6.854;2023-08-30T00:08:12;14.73;;;13.23;;
3613;SDS011;1821;50.936;6.854;2023-08-30T00:09:03;16.92;;;13.90;;
3613;SDS011;1821;50.936;6.854;2023-08-30T00:09:44;15.52;;;13.48;;
3613;SDS011;1821;50.936;6.854;2023-08-30T00:10:26;13.90;;;12.50;;
3613;SDS011;1821;50.936;6.854;2023-08-30T00:11:08;14.38;;;12.98;;
3613;SDS011;1821;50.936;6.854;2023-08-30T00:11:50;14.73;;;13.23;;
3613;SDS011;1821;50.936;6.854;2023-08-30T00:12:33;15.10;;;13.50;;
3613;SDS011;1821;50.936;6.854;2023-08-30T00:13:15;15.67;;;13.20;;
3613;SDS011;1821;50.936;6.854;2023-08-30T00:14:03;15.40;;;13.13;;
3613;SDS011;1821;50.936;6.854;2023-08-30T00:14:47;15.07;;;13.48;;
3613;SDS011;1821;50.936;6.854;2023-08-30T00:15:29;14.23;;;12.82;;
3613;SDS011;1821;50.936;6.854;2023-08-30T00:16:11;14.52;;;13.05;;
3613;SDS011;1821;50.936;6.854;2023-08-30T00:16:54;15.23;;;13.30;;
3613;SDS011;1821;50.936;6.854;2023-08-30T00:17:36;13.82;;;12.32;;
3613;SDS011;1821;50.936;6.854;2023-08-30T00:18:18;14.70;;;13.10;;
3613;SDS011;1821;50.936;6.854;2023-08-30T00:19:00;13.27;;;11.90;;
3613;SDS011;1821;50.936;6.854;2023-08-30T00:19:42;13.73;;;12.32;;
3613;SDS011;1821;50.936;6.854;2023-08-30T00:20:23;13.60;;;12.20;;
3613;SDS011;1821;50.936;6.854;2023-08-30T00:21:05;14.00;;;12.50;;
3613;SDS011;1821;50.936;6.854;2023-08-30T00:21:48;13.73;;;12.32;;
3613;SDS011;1821;50.936;6.854;2023-08-30T00:22:30;14.70;;;13.30;;
3613;SDS011;1821;50.936;6.854;2023-08-30T00:23:12;13.90;;;12.40;;
3613;SDS011;1821;50.936;6.854;2023-08-30T00:23:54;13.07;;;11.77;;
3613;SDS011;1821;50.936;6.854;2023-08-30T00:24:35;14.50;;;12.48;;
3613;SDS011;1821;50.936;6.854;2023-08-30T00:25:17;14.32;;;12.50;;
3613;SDS011;1821;50.936;6.854;2023-08-30T00:25:59;13.60;;;12.15;;
3613;SDS011;1821;50.936;6.854;2023-08-30T00:26:42;14.52;;;12.80;;
3613;SDS011;1821;50.936;6.854;2023-08-30T00:27:23;14.32;;;12.68;;
3613;SDS011;1821;50.936;6.854;2023-08-30T00:28:05;14.15;;;12.65;;
3613;SDS011;1821;50.936;6.854;2023-08-30T00:28:48;13.75;;;12.20;;
3613;SDS011;1821;50.936;6.854;2023-08-30T00:29:30;13.32;;;12.02;;
3613;SDS011;1821;50.936;6.854;2023-08-30T00:30:12;14.30;;;12.90;;
3613;SDS011;1821;50.936;6.854;2023-08-30T00:30:54;14.27;;;12.18;;
3613;SDS011;1821;50.936;6.854;2023-08-30T00:31:37;13.88;;;12.40;;
3613;SDS011;1821;50.936;6.854;2023-08-30T00:32:19;13.07;;;11.63;;
3613;SDS011;1821;50.936;6.854;2023-08-30T00:33:00;13.43;;;12.05;;
3613;SDS011;1821;50.936;6.854;2023-08-30T00:33:42;13.82;;;12.40;;
3613;SDS011;1821;50.936;6.854;2023-08-30T00:34:25;15.00;;;12.00;;
3613;SDS011;1821;50.936;6.854;2023-08-30T00:35:07;13.88;;;12.40;;
3613;SDS011;1821;50.936;6.854;2023-08-30T00:35:55;13.75;;;12.35;;
3613;SDS011;1821;50.936;6.854;2023-08-30T00:36:38;13.10;;;11.80;;
3613;SDS011;1821;50.936;6.854;2023-08-30T00:37:20;12.82;;;10.85;;
3613;SDS011;1821;50.936;6.854;2023-08-30T00:38:02;13.00;;;11.80;;
3613;SDS011;1821;50.936;6.854;2023-08-30T00:38:44;14.60;;;12.35;;
3613;SDS011;1821;50.936;6.854;2023-08-30T00:39:26;13.80;;;11.60;;
3613;SDS011;1821;50.936;6.854;2023-08-30T00:40:07;13.88;;;11.10;;
3613;SDS011;1821;50.936;6.854;2023-08-30T00:40:49;13.60;;;11.88;;
3613;SDS011;1821;50.936;6.854;2023-08-30T00:41:31;12.40;;;11.20;;
3613;SDS011;1821;50.936;6.854;2023-08-30T00:42:13;12.27;;;11.07;;
3613;SDS011;1821;50.936;6.854;2023-08-30T00:42:56;12.90;;;11.52;;
3613;SDS011;1821;50.936;6.854;2023-08-30T00:43:38;16.40;;;12.57;;
3613;SDS011;1821;50.936;6.854;2023-08-30T00:44:20;14.02;;;12.00;;
3613;SDS011;1821;50.936;6.854;2023-08-30T00:45:02;12.07;;;10.88;;
3613;SDS011;1821;50.936;6.854;2023-08-30T00:45:45;13.70;;;12.30;;
3613;SDS011;1821;50.936;6.854;2023-08-30T00:46:28;12.32;;;11.00;;
3613;SDS011;1821;50.936;6.854;2023-08-30T00:47:11;12.05;;;10.75;;
3613;SDS011;1821;50.936;6.854;2023-08-30T00:47:53;12.27;;;10.98;;
3613;SDS011;1821;50.936;6.854;2023-08-30T00:48:35;12.45;;;11.25;;
3613;SDS011;1821;50.936;6.854;2023-08-30T00:49:17;13.35;;;12.05;;
3613;SDS011;1821;50.936;6.854;2023-08-30T00:49:58;12.70;;;11.40;;
3613;SDS011;1821;50.936;6.854;2023-08-30T00:50:42;13.40;;;11.07;;
3613;SDS011;1821;50.936;6.854;2023-08-30T00:51:24;13.57;;;10.90;;
3613;SDS011;1821;50.936;6.854;2023-08-30T00:52:07;12.73;;;11.25;;
3613;SDS011;1821;50.936;6.854;2023-08-30T00:52:50;12.50;;;11.20;;
3613;SDS011;1821;50.936;6.854;2023-08-30T00:53:32;12.57;;;11.27;;
3613;SDS011;1821;50.936;6.854;2023-08-30T00:54:14;11.85;;;10.55;;
3613;SDS011;1821;50.936;6.854;2023-08-30T00:54:57;12.43;;;10.77;;
3613;SDS011;1821;50.936;6.854;2023-08-30T00:55:41;12.93;;;11.63;;
3613;SDS011;1821;50.936;6.854;2023-08-30T00:56:23;12.70;;;11.40;;
3613;SDS011;1821;50.936;6.854;2023-08-30T00:57:05;12.63;;;11.43;;
3613;SDS011;1821;50.936;6.854;2023-08-30T00:57:48;13.07;;;11.68;;
3613;SDS011;1821;50.936;6.854;2023-08-30T00:58:30;13.48;;;11.40;;
3613;SDS011;1821;50.936;6.854;2023-08-30T00:59:13;11.90;;;10.65;;
3613;SDS011;1821;50.936;6.854;2023-08-30T00:59:55;11.35;;;10.15;;
3613;SDS011;1821;50.936;6.854;2023-08-30T01:00:37;11.90;;;10.40;;
3613;SDS011;1821;50.936;6.854;2023-08-30T01:01:20;12.00;;;10.07;;
3613;SDS011;1821;50.936;6.854;2023-08-30T01:02:03;12.05;;;10.77;;
3613;SDS011;1821;50.936;6.854;2023-08-30T01:02:46;12.20;;;11.00;;
3613;SDS011;1821;50.936;6.854;2023-08-30T01:03:27;12.20;;;10.90;;
3613;SDS011;1821;50.936;6.854;2023-08-30T01:04:09;11.57;;;10.38;;
3613;SDS011;1821;50.936;6.854;2023-08-30T01:04:51;13.82;;;10.73;;
3613;SDS011;1821;50.936;6.854;2023-08-30T01:05:33;11.82;;;10.35;;
3613;SDS011;1821;50.936;6.854;2023-08-30T01:06:15;11.15;;;9.95;;
3613;SDS011;1821;50.936;6.854;2023-08-30T01:06:57;11.68;;;10.30;;
3613;SDS011;1821;50.936;6.854;2023-08-30T01:07:39;12.30;;;10.20;;
3613;SDS011;1821;50.936;6.854;2023-08-30T01:08:21;14.13;;;10.70;;
3613;SDS011;1821;50.936;6.854;2023-08-30T01:09:03;12.02;;;10.77;;
3613;SDS011;1821;50.936;6.854;2023-08-30T01:09:45;11.10;;;10.00;;
3613;SDS011;1821;50.936;6.854;2023-08-30T01:11:42;13.85;;;10.30;;
3613;SDS011;1821;50.936;6.854;2023-08-30T01:12:45;12.00;;;10.80;;
3613;SDS011;1821;50.936;6.854;2023-08-30T01:13:30;12.05;;;9.90;;
3613;SDS011;1821;50.936;6.854;2023-08-30T01:14:22;11.75;;;10.60;;
3613;SDS011;1821;50.936;6.854;2023-08-30T01:15:19;12.55;;;10.45;;
3613;SDS011;1821;50.936;6.854;2023-08-30T01:16:02;11.07;;;10.07;;
3613;SDS011;1821;50.936;6.854;2023-08-30T01:16:45;12.00;;;9.90;;
3613;SDS011;1821;50.936;6.854;2023-08-30T01:17:27;14.13;;;9.55;;
3613;SDS011;1821;50.936;6.854;2023-08-30T01:18:10;12.30;;;9.10;;
3613;SDS011;1821;50.936;6.854;2023-08-30T01:18:54;10.00;;;9.02;;
3613;SDS011;1821;50.936;6.854;2023-08-30T01:20:42;12.85;;;10.13;;
3613;SDS011;1821;50.936;6.854;2023-08-30T01:21:48;12.52;;;9.70;;
3613;SDS011;1821;50.936;6.854;2023-08-30T01:23:31;12.43;;;10.45;;
3613;SDS011;1821;50.936;6.854;2023-08-30T01:24:26;10.65;;;9.60;;
3613;SDS011;1821;50.936;6.854;2023-08-30T01:26:38;11.10;;;10.00;;
3613;SDS011;1821;50.936;6.854;2023-08-30T01:27:26;11.45;;;10.25;;
3613;SDS011;1821;50.936;6.854;2023-08-30T01:28:09;13.18;;;10.30;;
3613;SDS011;1821;50.936;6.854;2023-08-30T01:28:53;11.60;;;10.15;;
3613;SDS011;1821;50.936;6.854;2023-08-30T01:29:37;10.88;;;9.27;;
3613;SDS011;1821;50.936;6.854;2023-08-30T01:30:21;12.10;;;9.77;;
3613;SDS011;1821;50.936;6.854;2023-08-30T01:31:08;12.77;;;9.57;;
3613;SDS011;1821;50.936;6.854;2023-08-30T01:31:53;10.40;;;9.23;;
3613;SDS011;1821;50.936;6.854;2023-08-30T01:32:36;10.35;;;9.35;;
3613;SDS011;1821;50.936;6.854;2023-08-30T01:33:20;12.05;;;10.00;;
3613;SDS011;1821;50.936;6.854;2023-08-30T01:34:02;13.77;;;9.50;;
3613;SDS011;1821;50.936;6.854;2023-08-30T01:34:45;10.60;;;9.43;;
3613;SDS011;1821;50.936;6.854;2023-08-30T01:35:29;10.13;;;9.00;;
3613;SDS011;1821;50.936;6.854;2023-08-30T01:36:14;11.07;;;9.80;;
3613;SDS011;1821;50.936;6.854;2023-08-30T01:36:57;11.32;;;10.18;;
3613;SDS011;1821;50.936;6.854;2023-08-30T01:37:40;10.23;;;9.13;;
3613;SDS011;1821;50.936;6.854;2023-08-30T01:38:22;13.18;;;10.10;;
3613;SDS011;1821;50.936;6.854;2023-08-30T01:39:06;10.98;;;9.30;;
3613;SDS011;1821;50.936;6.854;2023-08-30T01:39:48;9.75;;;8.75;;
3613;SDS011;1821;50.936;6.854;2023-08-30T01:40:33;10.50;;;9.40;;
3613;SDS011;1821;50.936;6.854;2023-08-30T01:41:17;10.35;;;9.25;;
3613;SDS011;1821;50.936;6.854;2023-08-30T01:42:00;10.50;;;8.75;;
3613;SDS011;1821;50.936;6.854;2023-08-30T01:42:44;10.20;;;8.95;;
3613;SDS011;1821;50.936;6.854;2023-08-30T01:43:27;10.65;;;9.55;;
3613;SDS011;1821;50.936;6.854;2023-08-30T01:44:10;11.15;;;10.05;;
3613;SDS011;1821;50.936;6.854;2023-08-30T01:44:54;9.93;;;8.88;;
3613;SDS011;1821;50.936;6.854;2023-08-30T01:45:39;10.30;;;9.30;;
3613;SDS011;1821;50.936;6.854;2023-08-30T01:46:23;11.27;;;9.35;;
3613;SDS011;1821;50.936;6.854;2023-08-30T01:47:05;11.80;;;9.60;;
3613;SDS011;1821;50.936;6.854;2023-08-30T01:47:47;11.80;;;9.60;;
3613;SDS011;1821;50.936;6.854;2023-08-30T01:48:30;10.90;;;9.15;;
3613;SDS011;1821;50.936;6.854;2023-08-30T01:49:14;10.98;;;9.43;;
3613;SDS011;1821;50.936;6.854;2023-08-30T01:49:56;10.65;;;9.45;;
3613;SDS011;1821;50.936;6.854;2023-08-30T01:50:39;10.73;;;8.90;;
3613;SDS011;1821;50.936;6.854;2023-08-30T01:51:23;11.30;;;10.00;;
3613;SDS011;1821;50.936;6.854;2023-08-30T01:52:06;10.23;;;9.13;;
3613;SDS011;1821;50.936;6.854;2023-08-30T01:52:48;10.63;;;9.55;;
3613;SDS011;1821;50.936;6.854;2023-08-30T01:53:30;10.60;;;9.30;;
3613;SDS011;1821;50.936;6.854;2023-08-30T01:54:13;10.77;;;9.68;;
3613;SDS011;1821;50.936;6.854;2023-08-30T01:54:59;9.80;;;8.80;;
3613;SDS011;1821;50.936;6.854;2023-08-30T01:55:43;9.88;;;8.88;;
3613;SDS011;1821;50.936;6.854;2023-08-30T01:56:25;10.40;;;9.30;;
3613;SDS011;1821;50.936;6.854;2023-08-30T01:57:07;11.88;;;9.55;;
3613;SDS011;1821;50.936;6.854;2023-08-30T01:57:49;10.00;;;9.10;;
3613;SDS011;1821;50.936;6.854;2023-08-30T01:58:30;10.98;;;9.98;;
3613;SDS011;1821;50.936;6.854;2023-08-30T01:59:12;12.77;;;9.40;;
3613;SDS011;1821;50.936;6.854;2023-08-30T01:59:54;12.95;;;9.05;;
3613;SDS011;1821;50.936;6.854;2023-08-30T02:00:36;10.57;;;8.50;;
3613;SDS011;1821;50.936;6.854;2023-08-30T02:01:18;12.23;;;9.98;;
3613;SDS011;1821;50.936;6.854;2023-08-30T02:02:00;10.43;;;9.32;;
3613;SDS011;1821;50.936;6.854;2023-08-30T02:02:41;12.98;;;8.90;;
3613;SDS011;1821;50.936;6.854;2023-08-30T02:03:23;15.40;;;9.00;;
3613;SDS011;1821;50.936;6.854;2023-08-30T02:04:05;12.00;;;9.75;;
3613;SDS011;1821;50.936;6.854;2023-08-30T02:04:47;10.60;;;9.50;;
3613;SDS011;1821;50.936;6.854;2023-08-30T02:05:29;9.95;;;8.95;;
3613;SDS011;1821;50.936;6.854;2023-08-30T02:06:13;10.90;;;9.65;;
3613;SDS011;1821;50.936;6.854;2023-08-30T02:07:02;10.88;;;9.70;;
3613;SDS011;1821;50.936;6.854;2023-08-30T02:07:51;9.73;;;8.75;;
3613;SDS011;1821;50.936;6.854;2023-08-30T02:08:41;10.95;;;8.77;;
3613;SDS011;1821;50.936;6.854;2023-08-30T02:11:01;9.60;;;8.70;;
3613;SDS011;1821;50.936;6.854;2023-08-30T02:11:46;11.52;;;9.18;;
3613;SDS011;1821;50.936;6.854;2023-08-30T02:12:34;11.40;;;9.23;;
3613;SDS011;1821;50.936;6.854;2023-08-30T02:13:28;9.98;;;8.98;;
3613;SDS011;1821;50.936;6.854;2023-08-30T02:14:12;9.98;;;8.98;;
3613;SDS011;1821;50.936;6.854;2023-08-30T02:14:58;10.02;;;9.02;;
3613;SDS011;1821;50.936;6.854;2023-08-30T02:15:42;10.43;;;9.43;;
3613;SDS011;1821;50.936;6.854;2023-08-30T02:16:25;11.45;;;9.13;;
3613;SDS011;1821;50.936;6.854;2023-08-30T02:17:09;10.70;;;9.60;;
3613;SDS011;1821;50.936;6.854;2023-08-30T02:17:51;11.35;;;9.60;;
3613;SDS011;1821;50.936;6.854;2023-08-30T02:18:34;9.57;;;8.57;;
3613;SDS011;1821;50.936;6.854;2023-08-30T02:19:18;9.65;;;8.65;;
3613;SDS011;1821;50.936;6.854;2023-08-30T02:20:02;10.73;;;9.25;;
3613;SDS011;1821;50.936;6.854;2023-08-30T02:20:45;10.98;;;9.73;;
3613;SDS011;1821;50.936;6.854;2023-08-30T02:21:27;10.00;;;9.00;;
3613;SDS011;1821;50.936;6.854;2023-08-30T02:22:10;9.80;;;8.82;;
3613;SDS011;1821;50.936;6.854;2023-08-30T02:22:52;9.32;;;8.40;;
3613;SDS011;1821;50.936;6.854;2023-08-30T02:23:39;10.52;;;8.95;;
3613;SDS011;1821;50.936;6.854;2023-08-30T02:24:21;10.32;;;9.30;;
3613;SDS011;1821;50.936;6.854;2023-08-30T02:25:03;10.50;;;9.40;;
3613;SDS011;1821;50.936;6.854;2023-08-30T02:25:45;10.48;;;9.48;;
3613;SDS011;1821;50.936;6.854;2023-08-30T02:26:27;9.82;;;8.77;;
3613;SDS011;1821;50.936;6.854;2023-08-30T02:27:09;11.82;;;9.00;;
3613;SDS011;1821;50.936;6.854;2023-08-30T02:27:51;11.63;;;9.40;;
3613;SDS011;1821;50.936;6.854;2023-08-30T02:28:33;10.85;;;9.00;;
3613;SDS011;1821;50.936;6.854;2023-08-30T02:29:15;10.25;;;9.00;;
3613;SDS011;1821;50.936;6.854;2023-08-30T02:29:57;10.40;;;9.18;;
3613;SDS011;1821;50.936;6.854;2023-08-30T02:30:39;9.88;;;8.98;;
3613;SDS011;1821;50.936;6.854;2023-08-30T02:31:21;9.38;;;8.48;;
3613;SDS011;1821;50.936;6.854;2023-08-30T02:32:03;10.43;;;9.30;;
3613;SDS011;1821;50.936;6.854;2023-08-30T02:32:45;10.63;;;9.07;;
3613;SDS011;1821;50.936;6.854;2023-08-30T02:33:27;10.10;;;8.95;;
3613;SDS011;1821;50.936;6.854;2023-08-30T02:34:10;10.40;;;8.85;;
3613;SDS011;1821;50.936;6.854;2023-08-30T02:34:52;11.48;;;9.02;;
3613;SDS011;1821;50.936;6.854;2023-08-30T02:35:34;11.90;;;9.52;;
3613;SDS011;1821;50.936;6.854;2023-08-30T02:36:16;10.85;;;9.50;;
3613;SDS011;1821;50.936;6.854;2023-08-30T02:36:58;11.10;;;9.38;;
3613;SDS011;1821;50.936;6.854;2023-08-30T02:37:39;11.15;;;9.55;;
3613;SDS011;1821;50.936;6.854;2023-08-30T02:38:23;10.70;;;9.18;;
3613;SDS011;1821;50.936;6.854;2023-08-30T02:39:04;10.00;;;9.00;;
3613;SDS011;1821;50.936;6.854;2023-08-30T02:39:46;10.43;;;9.35;;
3613;SDS011;1821;50.936;6.854;2023-08-30T02:40:29;10.40;;;9.30;;
3613;SDS011;1821;50.936;6.854;2023-08-30T02:41:10;10.73;;;9.63;;
3613;SDS011;1821;50.936;6.854;2023-08-30T02:41:53;11.02;;;8.98;;
3613;SDS011;1821;50.936;6.854;2023-08-30T02:42:35;12.20;;;9.30;;
3613;SDS011;1821;50.936;6.854;2023-08-30T02:43:17;11.05;;;9.85;;
3613;SDS011;1821;50.936;6.854;2023-08-30T02:43:59;12.20;;;10.10;;
3613;SDS011;1821;50.936;6.854;2023-08-30T02:44:41;11.00;;;9.40;;
3613;SDS011;1821;50.936;6.854;2023-08-30T02:45:23;10.35;;;9.35;;
3613;SDS011;1821;50.936;6.854;2023-08-30T02:46:04;11.15;;;9.82;;
3613;SDS011;1821;50.936;6.854;2023-08-30T02:46:46;11.68;;;9.25;;
3613;SDS011;1821;50.936;6.854;2023-08-30T02:47:28;13.98;;;9.40;;
3613;SDS011;1821;50.936;6.854;2023-08-30T02:48:10;11.32;;;9.23;;
3613;SDS011;1821;50.936;6.854;2023-08-30T02:48:52;12.45;;;9.63;;
3613;SDS011;1821;50.936;6.854;2023-08-30T02:49:34;11.75;;;10.48;;
3613;SDS011;1821;50.936;6.854;2023-08-30T02:50:16;12.60;;;8.82;;
3613;SDS011;1821;50.936;6.854;2023-08-30T02:50:57;10.63;;;9.52;;
3613;SDS011;1821;50.936;6.854;2023-08-30T02:51:39;10.65;;;9.55;;
3613;SDS011;1821;50.936;6.854;2023-08-30T02:52:21;10.00;;;9.02;;
3613;SDS011;1821;50.936;6.854;2023-08-30T02:53:03;10.65;;;9.55;;
3613;SDS011;1821;50.936;6.854;2023-08-30T02:53:45;12.60;;;10.30;;
3613;SDS011;1821;50.936;6.854;2023-08-30T02:54:27;12.30;;;10.10;;
3613;SDS011;1821;50.936;6.854;2023-08-30T02:55:08;10.70;;;9.60;;
3613;SDS011;1821;50.936;6.854;2023-08-30T02:55:50;10.20;;;9.20;;
3613;SDS011;1821;50.936;6.854;2023-08-30T02:56:32;12.52;;;9.30;;
3613;SDS011;1821;50.936;6.854;2023-08-30T02:57:14;12.40;;;9.18;;
3613;SDS011;1821;50.936;6.854;2023-08-30T02:57:56;10.25;;;8.82;;
3613;SDS011;1821;50.936;6.854;2023-08-30T02:58:37;11.10;;;9.20;;
3613;SDS011;1821;50.936;6.854;2023-08-30T02:59:19;10.77;;;9.75;;
3613;SDS011;1821;50.936;6.854;2023-08-30T03:00:01;10.63;;;9.63;;
3613;SDS011;1821;50.936;6.854;2023-08-30T03:00:47;12.02;;;9.20;;
3613;SDS011;1821;50.936;6.854;2023-08-30T03:01:29;10.30;;;9.00;;
3613;SDS011;1821;50.936;6.854;2023-08-30T03:02:10;11.30;;;9.43;;
3613;SDS011;1821;50.936;6.854;2023-08-30T03:02:52;10.77;;;9.68;;
3613;SDS011;1821;50.936;6.854;2023-08-30T03:03:34;10.48;;;9.48;;
3613;SDS011;1821;50.936;6.854;2023-08-30T03:04:16;11.00;;;9.80;;
3613;SDS011;1821;50.936;6.854;2023-08-30T03:04:59;11.48;;;9.77;;
3613;SDS011;1821;50.936;6.854;2023-08-30T03:05:40;10.10;;;8.95;;
3613;SDS011;1821;50.936;6.854;2023-08-30T03:06:22;10.02;;;8.98;;
3613;SDS011;1821;50.936;6.854;2023-08-30T03:07:04;10.40;;;9.40;;
3613;SDS011;1821;50.936;6.854;2023-08-30T03:07:46;10.10;;;9.10;;
3613;SDS011;1821;50.936;6.854;2023-08-30T03:08:28;10.40;;;9.40;;
3613;SDS011;1821;50.936;6.854;2023-08-30T03:09:10;9.73;;;8.82;;
3613;SDS011;1821;50.936;6.854;2023-08-30T03:09:53;9.70;;;8.70;;
3613;SDS011;1821;50.936;6.854;2023-08-30T03:10:35;10.25;;;9.25;;
3613;SDS011;1821;50.936;6.854;2023-08-30T03:11:16;9.95;;;8.95;;
3613;SDS011;1821;50.936;6.854;2023-08-30T03:11:58;9.20;;;8.30;;
3613;SDS011;1821;50.936;6.854;2023-08-30T03:12:40;10.70;;;9.38;;
3613;SDS011;1821;50.936;6.854;2023-08-30T03:13:22;11.13;;;8.95;;
3613;SDS011;1821;50.936;6.854;2023-08-30T03:14:03;10.10;;;9.00;;
3613;SDS011;1821;50.936;6.854;2023-08-30T03:14:45;9.98;;;8.80;;
3613;SDS011;1821;50.936;6.854;2023-08-30T03:15:30;10.18;;;8.90;;
3613;SDS011;1821;50.936;6.854;2023-08-30T03:16:16;10.60;;;9.20;;
3613;SDS011;1821;50.936;6.854;2023-08-30T03:16:58;10.93;;;8.95;;
3613;SDS011;1821;50.936;6.854;2023-08-30T03:17:40;9.70;;;8.70;;
3613;SDS011;1821;50.936;6.854;2023-08-30T03:18:22;10.32;;;9.25;;
3613;SDS011;1821;50.936;6.854;2023-08-30T03:19:04;10.13;;;8.80;;
3613;SDS011;1821;50.936;6.854;2023-08-30T03:19:46;10.27;;;9.18;;
3613;SDS011;1821;50.936;6.854;2023-08-30T03:20:28;10.15;;;8.38;;
3613;SDS011;1821;50.936;6.854;2023-08-30T03:21:12;9.70;;;8.70;;
3613;SDS011;1821;50.936;6.854;2023-08-30T03:21:54;10.70;;;8.38;;
3613;SDS011;1821;50.936;6.854;2023-08-30T03:22:36;9.20;;;8.30;;
3613;SDS011;1821;50.936;6.854;2023-08-30T03:23:18;10.20;;;9.10;;
3613;SDS011;1821;50.936;6.854;2023-08-30T03:24:00;10.90;;;8.68;;
3613;SDS011;1821;50.936;6.854;2023-08-30T03:24:42;9.63;;;8.38;;
3613;SDS011;1821;50.936;6.854;2023-08-30T03:25:30;10.23;;;9.13;;
3613;SDS011;1821;50.936;6.854;2023-08-30T03:26:12;10.82;;;8.75;;
3613;SDS011;1821;50.936;6.854;2023-08-30T03:26:55;10.15;;;8.32;;
3613;SDS011;1821;50.936;6.854;2023-08-30T03:27:37;10.00;;;8.50;;
3613;SDS011;1821;50.936;6.854;2023-08-30T03:28:21;10.50;;;8.60;;
3613;SDS011;1821;50.936;6.854;2023-08-30T03:29:03;8.90;;;8.10;;
3613;SDS011;1821;50.936;6.854;2023-08-30T03:29:45;8.85;;;7.95;;
3613;SDS011;1821;50.936;6.854;2023-08-30T03:30:27;8.80;;;7.90;;
3613;SDS011;1821;50.936;6.854;2023-08-30T03:31:18;9.18;;;8.27;;
3613;SDS011;1821;50.936;6.854;2023-08-30T03:32:01;11.40;;;8.10;;
3613;SDS011;1821;50.936;6.854;2023-08-30T03:32:43;10.00;;;8.60;;
3613;SDS011;1821;50.936;6.854;2023-08-30T03:33:25;11.20;;;8.63;;
3613;SDS011;1821;50.936;6.854;2023-08-30T03:34:07;9.10;;;8.20;;
3613;SDS011;1821;50.936;6.854;2023-08-30T03:34:49;8.93;;;8.10;;
3613;SDS011;1821;50.936;6.854;2023-08-30T03:35:33;9.90;;;7.90;;
3613;SDS011;1821;50.936;6.854;2023-08-30T03:36:17;10.10;;;7.90;;
3613;SDS011;1821;50.936;6.854;2023-08-30T03:37:00;8.90;;;8.00;;
3613;SDS011;1821;50.936;6.854;2023-08-30T03:37:42;9.60;;;8.73;;
3613;SDS011;1821;50.936;6.854;2023-08-30T03:38:24;9.20;;;8.30;;
3613;SDS011;1821;50.936;6.854;2023-08-30T03:39:06;8.70;;;7.80;;
3613;SDS011;1821;50.936;6.854;2023-08-30T03:39:47;10.98;;;8.63;;
3613;SDS011;1821;50.936;6.854;2023-08-30T03:40:30;12.38;;;8.32;;
3613;SDS011;1821;50.936;6.854;2023-08-30T03:41:14;9.43;;;8.13;;
3613;SDS011;1821;50.936;6.854;2023-08-30T03:41:56;9.70;;;7.97;;
3613;SDS011;1821;50.936;6.854;2023-08-30T03:42:38;9.52;;;8.07;;
3613;SDS011;1821;50.936;6.854;2023-08-30T03:43:20;8.70;;;7.80;;
3613;SDS011;1821;50.936;6.854;2023-08-30T03:44:02;9.80;;;8.50;;
3613;SDS011;1821;50.936;6.854;2023-08-30T03:44:44;9.73;;;8.65;;
3613;SDS011;1821;50.936;6.854;2023-08-30T03:45:26;8.45;;;7.65;;
3613;SDS011;1821;50.936;6.854;2023-08-30T03:46:08;9.07;;;8.10;;
3613;SDS011;1821;50.936;6.854;2023-08-30T03:46:53;9.32;;;8.10;;
3613;SDS011;1821;50.936;6.854;2023-08-30T03:47:37;8.90;;;7.50;;
3613;SDS011;1821;50.936;6.854;2023-08-30T03:48:19;8.80;;;7.80;;
3613;SDS011;1821;50.936;6.854;2023-08-30T03:49:01;9.13;;;8.20;;
3613;SDS011;1821;50.936;6.854;2023-08-30T03:49:44;8.45;;;7.55;;
3613;SDS011;1821;50.936;6.854;2023-08-30T03:50:27;8.70;;;7.80;;
3613;SDS011;1821;50.936;6.854;2023-08-30T03:51:09;9.00;;;8.10;;
3613;SDS011;1821;50.936;6.854;2023-08-30T03:51:51;8.57;;;7.68;;
3613;SDS011;1821;50.936;6.854;2023-08-30T03:52:33;8.68;;;7.88;;
3613;SDS011;1821;50.936;6.854;2023-08-30T03:53:16;8.43;;;7.63;;
3613;SDS011;1821;50.936;6.854;2023-08-30T03:53:58;9.88;;;8.20;;
3613;SDS011;1821;50.936;6.854;2023-08-30T03:54:40;9.00;;;7.85;;
3613;SDS011;1821;50.936;6.854;2023-08-30T03:55:22;8.70;;;7.88;;
3613;SDS011;1821;50.936;6.854;2023-08-30T03:56:04;9.02;;;8.13;;
3613;SDS011;1821;50.936;6.854;2023-08-30T03:56:47;8.70;;;7.80;;
3613;SDS011;1821;50.936;6.854;2023-08-30T03:57:31;10.70;;;8.43;;
3613;SDS011;1821;50.936;6.854;2023-08-30T03:58:13;9.95;;;8.15;;
3613;SDS011;1821;50.936;6.854;2023-08-30T03:58:55;9.50;;;8.40;;
3613;SDS011;1821;50.936;6.854;2023-08-30T03:59:37;9.80;;;8.80;;
3613;SDS011;1821;50.936;6.854;2023-08-30T04:00:19;8.23;;;7.43;;
3613;SDS011;1821;50.936;6.854;2023-08-30T04:01:01;9.32;;;8.43;;
3613;SDS011;1821;50.936;6.854;2023-08-30T04:01:43;9.27;;;8.02;;
3613;SDS011;1821;50.936;6.854;2023-08-30T04:02:26;11.07;;;7.90;;
3613;SDS011;1821;50.936;6.854;2023-08-30T04:03:09;10.30;;;8.13;;
3613;SDS011;1821;50.936;6.854;2023-08-30T04:03:52;8.60;;;7.70;;
3613;SDS011;1821;50.936;6.854;2023-08-30T04:04:34;9.35;;;8.35;;
3613;SDS011;1821;50.936;6.854;2023-08-30T04:05:16;9.07;;;8.10;;
3613;SDS011;1821;50.936;6.854;2023-08-30T04:05:58;8.65;;;7.75;;
3613;SDS011;1821;50.936;6.854;2023-08-30T04:06:40;8.80;;;8.00;;
3613;SDS011;1821;50.936;6.854;2023-08-30T04:07:22;9.02;;;8.05;;
3613;SDS011;1821;50.936;6.854;2023-08-30T04:08:04;8.80;;;7.90;;
3613;SDS011;1821;50.936;6.854;2023-08-30T04:08:47;8.82;;;7.93;;
3613;SDS011;1821;50.936;6.854;2023-08-30T04:09:30;8.10;;;7.30;;
3613;SDS011;1821;50.936;6.854;2023-08-30T04:10:12;9.43;;;7.95;;
3613;SDS011;1821;50.936;6.854;2023-08-30T04:10:54;9.38;;;8.20;;
3613;SDS011;1821;50.936;6.854;2023-08-30T04:11:36;8.65;;;7.75;;
3613;SDS011;1821;50.936;6.854;2023-08-30T04:12:18;8.48;;;7.65;;
3613;SDS011;1821;50.936;6.854;2023-08-30T04:13:00;9.02;;;8.13;;
3613;SDS011;1821;50.936;6.854;2023-08-30T04:13:42;8.30;;;7.50;;
3613;SDS011;1821;50.936;6.854;2023-08-30T04:14:24;8.02;;;7.18;;
3613;SDS011;1821;50.936;6.854;2023-08-30T04:15:06;8.25;;;7.45;;
3613;SDS011;1821;50.936;6.854;2023-08-30T04:15:48;8.45;;;7.60;;
3613;SDS011;1821;50.936;6.854;2023-08-30T04:16:31;9.15;;;8.20;;
3613;SDS011;1821;50.936;6.854;2023-08-30T04:17:13;8.20;;;7.40;;
3613;SDS011;1821;50.936;6.854;2023-08-30T04:17:55;8.27;;;7.35;;
3613;SDS011;1821;50.936;6.854;2023-08-30T04:18:37;10.00;;;7.90;;
3613;SDS011;1821;50.936;6.854;2023-08-30T04:19:19;8.90;;;8.00;;
3613;SDS011;1821;50.936;6.854;2023-08-30T04:20:01;7.90;;;7.10;;
3613;SDS011;1821;50.936;6.854;2023-08-30T04:20:46;8.13;;;7.32;;
3613;SDS011;1821;50.936;6.854;2023-08-30T04:21:29;7.90;;;7.10;;
3613;SDS011;1821;50.936;6.854;2023-08-30T04:22:11;8.15;;;7.35;;
3613;SDS011;1821;50.936;6.854;2023-08-30T04:22:52;8.68;;;7.38;;
3613;SDS011;1821;50.936;6.854;2023-08-30T04:23:36;11.40;;;8.13;;
3613;SDS011;1821;50.936;6.854;2023-08-30T04:24:18;10.55;;;7.80;;
3613;SDS011;1821;50.936;6.854;2023-08-30T04:25:00;8.57;;;7.78;;
3613;SDS011;1821;50.936;6.854;2023-08-30T04:25:43;10.27;;;8.50;;
3613;SDS011;1821;50.936;6.854;2023-08-30T04:26:26;12.57;;;8.50;;
3613;SDS011;1821;50.936;6.854;2023-08-30T04:27:08;9.90;;;8.35;;
3613;SDS011;1821;50.936;6.854;2023-08-30T04:27:50;8.70;;;7.80;;
3613;SDS011;1821;50.936;6.854;2023-08-30T04:28:32;8.70;;;7.80;;